createdAt,value
2023-03-28T00:02:22.015Z,2.13
2023-03-28T00:04:49.908Z,1.97
2023-03-28T00:07:17.015Z,2.23
2023-03-28T00:09:44.484Z,2.00
2023-03-28T00:12:11.635Z,2.10
2023-03-28T00:14:38.781Z,2.33
2023-03-28T00:17:07.871Z,2.10
2023-03-28T00:19:40.453Z,2.20
2023-03-28T00:22:08.489Z,2.23
2023-03-28T00:24:38.726Z,1.93
2023-03-28T00:27:07.099Z,2.50
2023-03-28T00:29:35.646Z,1.70
2023-03-28T00:32:02.888Z,2.30
2023-03-28T00:34:29.966Z,2.23
2023-03-28T00:36:57.022Z,2.23
2023-03-28T00:39:24.058Z,2.10
2023-03-28T00:41:51.166Z,3.17
2023-03-28T00:44:36.726Z,2.53
2023-03-28T00:47:04.117Z,2.73
2023-03-28T00:49:32.137Z,2.00
2023-03-28T00:52:01.936Z,2.60
2023-03-28T00:54:30.195Z,2.57
2023-03-28T00:56:59.650Z,1.90
2023-03-28T00:59:29.650Z,2.63
2023-03-28T01:01:57.004Z,2.43
2023-03-28T01:04:25.884Z,1.60
2023-03-28T01:06:54.804Z,2.77
2023-03-28T01:09:23.943Z,2.37
2023-03-28T01:11:51.909Z,2.27
2023-03-28T01:14:20.513Z,2.03
2023-03-28T01:16:47.969Z,2.07
2023-03-28T01:19:21.880Z,2.80
2023-03-28T01:22:06.852Z,2.63
2023-03-28T01:25:02.029Z,2.50
2023-03-28T01:27:50.616Z,2.00
2023-03-28T01:30:47.472Z,2.13
2023-03-28T01:33:23.629Z,2.10
2023-03-28T01:36:09.201Z,2.27
2023-03-28T01:38:45.224Z,1.80
2023-03-28T01:41:23.916Z,1.80
2023-03-28T01:43:56.956Z,2.77
2023-03-28T01:46:29.083Z,2.10
2023-03-28T01:49:17.058Z,2.50
2023-03-28T01:52:04.369Z,2.47
2023-03-28T01:54:34.381Z,2.30
2023-03-28T01:57:10.275Z,2.47
2023-03-28T01:59:57.740Z,2.80
2023-03-28T02:02:30.049Z,2.50
2023-03-28T02:04:59.676Z,2.30
2023-03-28T02:09:57.787Z,2.73
2023-03-28T02:12:27.684Z,2.40
2023-03-28T02:14:56.743Z,2.30
2023-03-28T02:17:24.926Z,2.60
2023-03-28T02:19:59.793Z,2.60
2023-03-28T02:22:31.673Z,2.53
2023-03-28T02:24:59.170Z,3.10
2023-03-28T02:27:26.267Z,2.17
2023-03-28T02:29:54.539Z,3.20
2023-03-28T02:32:22.353Z,2.33
2023-03-28T02:34:50.850Z,2.50
2023-03-28T02:37:43.139Z,2.27
2023-03-28T02:40:17.057Z,1.87
2023-03-28T02:42:56.701Z,2.40
2023-03-28T02:45:39.465Z,2.10
2023-03-28T02:48:24.609Z,2.30
2023-03-28T02:51:00.885Z,2.50
2023-03-28T02:53:33.304Z,2.13
2023-03-28T02:56:04.471Z,2.10
2023-03-28T02:58:40.064Z,2.27
2023-03-28T03:01:07.525Z,3.73
2023-03-28T03:03:36.703Z,1.77
2023-03-28T03:06:04.494Z,2.30
2023-03-28T03:08:31.884Z,4.00
2023-03-28T03:10:58.984Z,2.83
2023-03-28T03:13:26.042Z,2.33
2023-03-28T03:15:56.181Z,2.37
2023-03-28T03:18:23.768Z,2.20
2023-03-28T03:20:50.888Z,1.87
2023-03-28T03:23:17.971Z,2.90
2023-03-28T03:25:45.445Z,2.00
2023-03-28T03:28:13.108Z,2.23
2023-03-28T03:30:40.177Z,3.13
2023-03-28T03:33:10.207Z,2.80
2023-03-28T03:35:38.051Z,2.60
2023-03-28T03:38:05.191Z,2.20
2023-03-28T03:40:32.245Z,2.60
2023-03-28T03:42:59.283Z,2.63
2023-03-28T03:45:26.319Z,2.60
2023-03-28T03:47:53.417Z,2.93
2023-03-28T03:50:20.586Z,4.03
2023-03-28T03:52:47.611Z,2.40
2023-03-28T03:55:14.763Z,2.20
2023-03-28T03:57:41.844Z,3.23
2023-03-28T04:00:12.289Z,3.00
2023-03-28T04:02:39.917Z,2.90
2023-03-28T04:05:10.880Z,2.17
2023-03-28T04:07:37.965Z,2.13
2023-03-28T04:10:05.608Z,2.60
2023-03-28T04:12:32.969Z,3.00
2023-03-28T04:15:00.347Z,2.93
2023-03-28T04:17:29.661Z,2.70
2023-03-28T04:19:57.080Z,2.57
2023-03-28T04:22:29.565Z,2.43
2023-03-28T04:24:57.709Z,2.67
2023-03-28T04:27:31.224Z,2.47
2023-03-28T04:30:00.465Z,2.77
2023-03-28T04:32:34.925Z,2.60
2023-03-28T04:35:03.281Z,2.90
2023-03-28T04:37:30.410Z,2.20
2023-03-28T04:40:01.163Z,2.73
2023-03-28T04:42:31.397Z,3.17
2023-03-28T04:44:58.432Z,2.57
2023-03-28T04:47:25.769Z,2.97
2023-03-28T04:49:54.099Z,2.60
2023-03-28T04:52:21.126Z,2.87
2023-03-28T04:54:48.301Z,3.30
2023-03-28T04:57:15.626Z,3.03
2023-03-28T04:59:42.714Z,2.80
2023-03-28T05:02:09.776Z,2.40
2023-03-28T05:04:37.269Z,2.47
2023-03-28T05:07:04.602Z,3.27
2023-03-28T05:09:31.835Z,2.90
2023-03-28T05:11:59.178Z,3.87
2023-03-28T05:14:26.272Z,3.23
2023-03-28T05:16:53.337Z,3.60
2023-03-28T05:19:20.924Z,4.17
2023-03-28T05:21:47.994Z,3.30
2023-03-28T05:24:15.337Z,4.00
2023-03-28T05:26:42.589Z,4.13
2023-03-28T05:29:09.650Z,4.30
2023-03-28T05:31:36.964Z,3.57
2023-03-28T05:34:04.066Z,3.30
2023-03-28T05:36:31.354Z,3.70
2023-03-28T05:38:58.402Z,2.93
2023-03-28T05:41:25.830Z,3.50
2023-03-28T05:43:52.908Z,3.20
2023-03-28T05:46:20.168Z,2.50
2023-03-28T05:48:49.673Z,3.43
2023-03-28T05:51:17.100Z,3.17
2023-03-28T05:53:44.274Z,3.07
2023-03-28T05:56:11.322Z,3.40
2023-03-28T05:58:40.163Z,2.90
2023-03-28T06:01:07.851Z,2.97
2023-03-28T06:03:40.454Z,2.97
2023-03-28T06:06:09.248Z,3.53
2023-03-28T06:08:36.414Z,2.90
2023-03-28T06:11:03.902Z,3.57
2023-03-28T06:13:31.243Z,3.40
2023-03-28T06:15:58.401Z,3.57
2023-03-28T06:18:25.843Z,3.33
2023-03-28T06:20:52.907Z,4.20
2023-03-28T06:23:20.240Z,4.00
2023-03-28T06:25:47.283Z,4.03
2023-03-28T06:28:14.462Z,4.33
2023-03-28T06:30:41.483Z,3.80
2023-03-28T06:33:08.995Z,4.13
2023-03-28T06:35:36.216Z,3.90
2023-03-28T06:38:03.562Z,3.80
2023-03-28T06:40:31.115Z,3.70
2023-03-28T06:42:58.189Z,4.07
2023-03-28T06:45:25.321Z,3.87
2023-03-28T06:47:53.936Z,4.23
2023-03-28T06:50:21.452Z,4.00
2023-03-28T06:52:48.523Z,4.53
2023-03-28T06:55:15.598Z,4.53
2023-03-28T06:57:42.669Z,4.23
2023-03-28T07:00:09.974Z,4.07
2023-03-28T07:02:37.149Z,5.17
2023-03-28T07:05:04.266Z,4.23
2023-03-28T07:07:31.663Z,3.50
2023-03-28T07:09:58.693Z,4.20
2023-03-28T07:12:26.265Z,4.60
2023-03-28T07:14:53.291Z,3.77
2023-03-28T07:17:20.718Z,4.40
2023-03-28T07:19:50.987Z,4.03
2023-03-28T07:22:18.124Z,4.57
2023-03-28T07:24:45.210Z,4.07
2023-03-28T07:27:16.026Z,3.90
2023-03-28T07:29:44.147Z,3.77
2023-03-28T07:32:11.471Z,3.43
2023-03-28T07:34:38.559Z,3.63
2023-03-28T07:37:05.649Z,3.23
2023-03-28T07:39:32.897Z,3.57
2023-03-28T07:41:59.949Z,3.90
2023-03-28T07:44:27.014Z,3.30
2023-03-28T07:46:54.638Z,4.30
2023-03-28T07:49:21.765Z,4.37
2023-03-28T07:51:48.899Z,3.57
2023-03-28T07:54:17.576Z,4.00
2023-03-28T07:56:45.853Z,4.13
2023-03-28T07:59:13.596Z,4.60
2023-03-28T08:01:41.869Z,3.53
2023-03-28T08:04:09.494Z,4.03
2023-03-28T08:06:40.116Z,3.90
2023-03-28T08:09:11.956Z,4.17
2023-03-28T08:11:39.371Z,4.60
2023-03-28T08:14:09.280Z,4.87
2023-03-28T08:16:36.382Z,4.43
2023-03-28T08:19:11.511Z,4.63
2023-03-28T08:21:39.272Z,3.93
2023-03-28T08:24:07.714Z,3.93
2023-03-28T08:26:35.065Z,3.70
2023-03-28T08:29:02.252Z,4.00
2023-03-28T08:31:29.732Z,4.80
2023-03-28T08:33:57.208Z,4.27
2023-03-28T08:36:25.426Z,3.70
2023-03-28T08:39:00.295Z,3.80
2023-03-28T08:41:46.838Z,4.77
2023-03-28T08:44:22.787Z,3.90
2023-03-28T08:46:52.897Z,3.53
2023-03-28T08:49:20.145Z,3.77
2023-03-28T08:51:49.807Z,3.67
2023-03-28T08:54:29.075Z,3.10
2023-03-28T08:56:57.387Z,4.10
2023-03-28T08:59:30.320Z,3.60
2023-03-28T09:01:57.782Z,3.57
2023-03-28T09:04:28.965Z,3.13
2023-03-28T09:07:00.540Z,2.97
2023-03-28T09:09:45.682Z,3.37
2023-03-28T09:12:30.996Z,2.83
2023-03-28T09:15:01.358Z,2.90
2023-03-28T09:17:28.485Z,2.67
2023-03-28T09:19:55.580Z,2.60
2023-03-28T09:22:44.323Z,2.07
2023-03-28T09:25:17.509Z,1.60
2023-03-28T09:27:49.708Z,2.10
2023-03-28T09:30:21.881Z,2.13
2023-03-28T09:32:53.021Z,2.57
2023-03-28T09:35:21.480Z,2.20
2023-03-28T09:37:56.563Z,2.03
2023-03-28T09:40:25.804Z,1.80
2023-03-28T09:43:15.864Z,2.10
2023-03-28T09:46:05.858Z,1.77
2023-03-28T09:48:34.992Z,1.57
2023-03-28T09:51:02.892Z,2.63
2023-03-28T09:53:33.070Z,1.90
2023-03-28T09:56:06.115Z,1.53
2023-03-28T09:58:52.721Z,1.40
2023-03-28T10:01:27.114Z,1.70
2023-03-28T10:03:55.899Z,2.30
2023-03-28T10:06:27.638Z,1.60
2023-03-28T10:09:09.425Z,1.60
2023-03-28T10:11:48.766Z,1.83
2023-03-28T10:14:48.217Z,1.73
2023-03-28T10:17:18.204Z,2.20
2023-03-28T10:19:49.240Z,2.37
2023-03-28T10:22:21.298Z,1.60
2023-03-28T10:24:48.911Z,1.57
2023-03-28T10:27:18.089Z,1.60
2023-03-28T10:29:46.757Z,1.97
2023-03-28T10:32:14.832Z,2.00
2023-03-28T10:34:41.944Z,1.80
2023-03-28T10:37:28.171Z,1.80
2023-03-28T10:40:07.541Z,1.87
2023-03-28T10:42:41.738Z,2.07
2023-03-28T10:45:19.106Z,2.00
2023-03-28T10:47:46.496Z,1.97
2023-03-28T10:50:36.816Z,2.03
2023-03-28T10:53:13.181Z,2.30
2023-03-28T10:56:10.750Z,2.27
2023-03-28T10:58:45.365Z,1.83
2023-03-28T11:01:20.922Z,2.03
2023-03-28T11:03:59.593Z,2.03
2023-03-28T11:06:30.582Z,1.97
2023-03-28T11:09:08.536Z,1.93
2023-03-28T11:11:36.515Z,2.53
2023-03-28T11:14:11.679Z,1.90
2023-03-28T11:16:54.790Z,2.13
2023-03-28T11:19:40.440Z,2.10
2023-03-28T11:22:21.008Z,2.07
2023-03-28T11:24:54.027Z,2.00
2023-03-28T11:27:26.508Z,1.80
2023-03-28T11:29:53.576Z,2.07
2023-03-28T11:32:20.670Z,2.43
2023-03-28T11:34:57.614Z,2.13
2023-03-28T11:37:37.077Z,2.57
2023-03-28T11:40:14.504Z,2.20
2023-03-28T11:42:43.928Z,3.20
2023-03-28T11:45:50.287Z,2.40
2023-03-28T11:48:26.192Z,2.60
2023-03-28T11:51:10.741Z,2.40
2023-03-28T11:53:45.065Z,2.20
2023-03-28T11:56:16.958Z,2.57
2023-03-28T11:58:46.392Z,2.80
2023-03-28T12:01:18.096Z,2.53
2023-03-28T12:03:51.925Z,2.67
2023-03-28T12:06:29.596Z,2.70
2023-03-28T12:09:01.333Z,2.53
2023-03-28T12:11:36.721Z,2.83
2023-03-28T12:14:22.701Z,2.97
2023-03-28T12:16:51.648Z,3.50
2023-03-28T12:19:25.562Z,3.60
2023-03-28T12:21:58.864Z,3.63
2023-03-28T12:24:35.832Z,3.63
2023-03-28T12:27:22.129Z,3.33
2023-03-28T12:30:07.619Z,2.80
2023-03-28T12:32:42.861Z,2.63
2023-03-28T12:35:15.703Z,3.03
2023-03-28T12:37:50.974Z,3.23
2023-03-28T12:40:28.997Z,2.63
2023-03-28T12:42:58.259Z,2.63
2023-03-28T12:45:32.555Z,2.20
2023-03-28T12:48:02.971Z,2.50
2023-03-28T12:50:48.395Z,2.20
2023-03-28T12:53:17.140Z,2.30
2023-03-28T12:55:46.560Z,2.30
2023-03-28T12:58:30.164Z,2.47
2023-03-28T13:01:09.668Z,2.10
2023-03-28T13:03:42.925Z,2.73
2023-03-28T13:06:10.432Z,1.93
2023-03-28T13:08:56.363Z,2.00
2023-03-28T13:11:35.644Z,1.80
2023-03-28T13:14:05.679Z,2.00
2023-03-28T13:16:38.535Z,2.00
2023-03-28T13:19:06.966Z,2.40
2023-03-28T13:21:42.869Z,2.07
2023-03-28T13:24:27.854Z,1.67
2023-03-28T13:26:59.195Z,1.80
2023-03-28T13:29:44.071Z,2.37
2023-03-28T13:32:23.043Z,2.83
2023-03-28T13:34:57.708Z,2.20
2023-03-28T13:37:25.914Z,1.90
2023-03-28T13:40:01.986Z,2.40
2023-03-28T13:42:30.798Z,2.50
2023-03-28T13:44:59.825Z,2.63
2023-03-28T13:47:32.938Z,2.33
2023-03-28T13:50:01.972Z,2.60
2023-03-28T13:52:29.090Z,2.53
2023-03-28T13:55:03.003Z,2.30
2023-03-28T13:57:30.265Z,2.70
2023-03-28T14:00:01.427Z,2.20
2023-03-28T14:02:34.249Z,2.67
2023-03-28T14:05:21.811Z,2.00
2023-03-28T14:07:50.495Z,2.30
2023-03-28T14:10:28.819Z,2.80
2023-03-28T14:12:58.232Z,2.20
2023-03-28T14:15:28.763Z,2.30
2023-03-28T14:17:57.455Z,2.17
2023-03-28T14:20:24.618Z,2.57
2023-03-28T14:22:59.924Z,2.33
2023-03-28T14:25:28.007Z,2.23
2023-03-28T14:27:56.639Z,2.60
2023-03-28T14:30:23.862Z,2.73
2023-03-28T14:33:01.584Z,2.53
2023-03-28T14:35:32.208Z,2.63
2023-03-28T14:38:00.976Z,2.40
2023-03-28T14:40:30.841Z,3.37
2023-03-28T14:43:21.317Z,2.70
2023-03-28T14:45:52.482Z,2.53
2023-03-28T14:48:23.106Z,2.60
2023-03-28T14:50:52.950Z,2.57
2023-03-28T14:53:27.214Z,2.53
2023-03-28T14:55:58.147Z,2.57
2023-03-28T14:58:28.123Z,2.70
2023-03-28T15:00:58.143Z,4.33
2023-03-28T15:03:38.693Z,2.27
2023-03-28T15:06:06.943Z,2.90
2023-03-28T15:08:36.766Z,2.30
2023-03-28T15:11:17.696Z,2.50
2023-03-28T15:13:46.712Z,2.73
2023-03-28T15:16:25.029Z,2.90
2023-03-28T15:18:58.331Z,2.50
2023-03-28T15:21:25.444Z,2.47
2023-03-28T15:24:01.434Z,3.23
2023-03-28T15:26:35.907Z,2.37
2023-03-28T15:29:03.364Z,2.50
2023-03-28T15:31:31.582Z,2.43
2023-03-28T15:33:59.223Z,2.57
2023-03-28T15:36:29.669Z,2.47
2023-03-28T15:39:01.657Z,3.23
2023-03-28T15:41:49.029Z,2.40
2023-03-28T15:44:29.577Z,2.30
2023-03-28T15:46:58.677Z,2.70
2023-03-28T15:49:26.041Z,2.83
2023-03-28T15:52:03.439Z,2.63
2023-03-28T15:54:32.143Z,2.60
2023-03-28T15:57:01.338Z,2.80
2023-03-28T15:59:37.190Z,3.30
2023-03-28T16:02:21.344Z,2.23
2023-03-28T16:05:01.538Z,2.60
2023-03-28T16:07:33.274Z,2.10
2023-03-28T16:10:00.309Z,2.57
2023-03-28T16:12:27.610Z,2.33
2023-03-28T16:14:55.036Z,2.53
2023-03-28T16:17:25.631Z,3.03
2023-03-28T16:19:52.747Z,2.83
2023-03-28T16:22:21.052Z,2.20
2023-03-28T16:24:49.145Z,2.30
2023-03-28T16:27:16.348Z,2.37
2023-03-28T16:29:43.632Z,1.80
2023-03-28T16:32:14.754Z,2.07
2023-03-28T16:34:42.375Z,1.90
2023-03-28T16:37:09.902Z,2.37
2023-03-28T16:39:37.546Z,2.00
2023-03-28T16:42:05.378Z,3.03
2023-03-28T16:44:32.547Z,1.80
2023-03-28T16:47:00.192Z,1.77
2023-03-28T16:49:27.267Z,2.30
2023-03-28T16:51:55.622Z,2.00
2023-03-28T16:54:23.176Z,2.60
2023-03-28T16:56:50.252Z,2.17
2023-03-28T16:59:17.431Z,2.20
2023-03-28T17:01:46.284Z,2.40
2023-03-28T17:04:13.479Z,3.10
2023-03-28T17:06:40.660Z,2.37
2023-03-28T17:09:07.711Z,2.30
2023-03-28T17:11:35.965Z,2.63
2023-03-28T17:14:03.683Z,2.10
2023-03-28T17:16:30.784Z,2.10
2023-03-28T17:18:57.906Z,3.10
2023-03-28T17:21:25.070Z,3.60
2023-03-28T17:23:52.751Z,2.90
2023-03-28T17:26:19.910Z,3.10
2023-03-28T17:28:47.244Z,2.67
2023-03-28T17:31:16.794Z,2.37
2023-03-28T17:33:44.667Z,2.80
2023-03-28T17:36:28.682Z,2.67
2023-03-28T17:38:56.859Z,2.73
2023-03-28T17:41:27.516Z,2.63
2023-03-28T17:43:55.712Z,2.47
2023-03-28T17:46:23.218Z,3.90
2023-03-28T17:48:50.646Z,3.80
2023-03-28T17:51:17.759Z,4.30
2023-03-28T17:53:46.907Z,4.70
2023-03-28T17:56:16.185Z,4.10
2023-03-28T17:58:43.374Z,4.00
2023-03-28T18:01:11.496Z,3.73
2023-03-28T18:03:41.561Z,3.50
2023-03-28T18:06:09.672Z,3.40
2023-03-28T18:08:36.860Z,3.30
2023-03-28T18:11:11.847Z,3.07
2023-03-28T18:13:39.159Z,4.57
2023-03-28T18:16:10.395Z,3.40
2023-03-28T18:18:37.888Z,3.27
2023-03-28T18:21:05.155Z,3.07
2023-03-28T18:23:32.327Z,3.60
2023-03-28T18:25:59.879Z,3.80
2023-03-28T18:28:27.382Z,4.50
2023-03-28T18:30:54.727Z,4.10
2023-03-28T18:33:22.377Z,4.77
2023-03-28T18:35:49.670Z,4.50
2023-03-28T18:38:17.625Z,4.03
2023-03-28T18:40:44.723Z,5.07
2023-03-28T18:43:11.910Z,4.03
2023-03-28T18:45:38.980Z,5.17
2023-03-28T18:48:09.013Z,4.63
2023-03-28T18:50:38.218Z,5.33
2023-03-28T18:53:05.274Z,4.67
2023-03-28T18:58:26.073Z,3.40
2023-03-28T19:00:59.685Z,3.67
2023-03-28T19:03:27.707Z,2.73
2023-03-28T19:05:56.282Z,3.40
2023-03-28T19:08:26.049Z,3.27
2023-03-28T19:10:53.911Z,3.50
2023-03-28T19:13:21.350Z,3.70
2023-03-28T19:15:48.460Z,3.20
2023-03-28T19:18:15.608Z,3.60
2023-03-28T19:20:42.681Z,3.80
2023-03-28T19:23:12.179Z,3.57
2023-03-28T19:25:39.477Z,4.27
2023-03-28T19:28:06.519Z,3.20
2023-03-28T19:30:46.012Z,3.30
2023-03-28T19:33:14.574Z,2.87
2023-03-28T19:35:42.310Z,4.07
2023-03-28T19:38:09.466Z,3.00
2023-03-28T19:40:36.637Z,3.37
2023-03-28T19:43:03.771Z,2.80
2023-03-28T19:45:31.001Z,3.53
2023-03-28T19:47:58.294Z,3.00
2023-03-28T19:50:40.004Z,3.33
2023-03-28T19:53:07.089Z,3.07
2023-03-28T19:55:34.130Z,3.63
2023-03-28T19:58:04.184Z,2.53
2023-03-28T20:00:32.232Z,2.50
2023-03-28T20:02:59.757Z,2.90
2023-03-28T20:05:52.179Z,3.00
2023-03-28T20:08:21.543Z,2.87
2023-03-28T20:10:50.039Z,2.83
2023-03-28T20:13:17.793Z,2.97
2023-03-28T20:15:50.112Z,3.10
2023-03-28T20:18:20.300Z,3.00
2023-03-28T20:20:54.507Z,2.83
2023-03-28T20:23:23.568Z,3.43
2023-03-28T20:25:51.970Z,3.40
2023-03-28T20:28:24.432Z,3.27
2023-03-28T20:30:52.253Z,3.50
2023-03-28T20:33:20.573Z,3.73
2023-03-28T20:35:55.083Z,3.30
2023-03-28T20:38:22.435Z,3.60
2023-03-28T20:40:49.681Z,3.23
2023-03-28T20:43:20.237Z,3.40
2023-03-28T20:45:53.650Z,3.50
2023-03-28T20:48:25.882Z,2.93
2023-03-28T20:50:56.122Z,2.93
2023-03-28T20:53:23.158Z,3.03
2023-03-28T20:55:59.010Z,2.77
2023-03-28T20:58:26.760Z,2.93
2023-03-28T21:00:57.200Z,3.10
2023-03-28T21:03:39.264Z,3.57
2023-03-28T21:06:07.625Z,3.40
2023-03-28T21:08:36.374Z,3.00
2023-03-28T21:11:03.625Z,3.03
2023-03-28T21:13:31.216Z,3.30
2023-03-28T21:15:58.342Z,3.07
2023-03-28T21:18:26.066Z,3.50
2023-03-28T21:20:53.170Z,3.40
2023-03-28T21:23:20.226Z,3.07
2023-03-28T21:25:48.829Z,3.07
2023-03-28T21:28:16.382Z,2.93
2023-03-28T21:30:43.449Z,3.47
2023-03-28T21:33:15.957Z,3.23
2023-03-28T21:35:43.266Z,3.20
2023-03-28T21:38:10.469Z,3.90
2023-03-28T21:40:37.494Z,3.30
2023-03-28T21:43:04.543Z,2.97
2023-03-28T21:45:31.622Z,3.50
2023-03-28T21:47:58.815Z,2.97
2023-03-28T21:50:31.162Z,3.20
2023-03-28T21:52:58.673Z,3.13
2023-03-28T21:55:25.805Z,3.30
2023-03-28T21:57:52.877Z,3.87
2023-03-28T22:00:20.593Z,3.50
2023-03-28T22:02:47.761Z,3.60
2023-03-28T22:05:28.298Z,3.07
2023-03-28T22:07:58.254Z,3.53
2023-03-28T22:10:26.470Z,3.87
2023-03-28T22:13:00.003Z,3.50
2023-03-28T22:15:27.278Z,3.30
2023-03-28T22:17:58.174Z,3.60
2023-03-28T22:20:26.660Z,3.30
2023-03-28T22:22:53.826Z,3.40
2023-03-28T22:25:22.548Z,3.17
2023-03-28T22:27:49.698Z,3.17
2023-03-28T22:30:17.040Z,3.43
2023-03-28T22:32:44.207Z,3.90
2023-03-28T22:35:11.992Z,3.73
2023-03-28T22:37:39.124Z,3.97
2023-03-28T22:40:08.409Z,3.90
2023-03-28T22:42:35.468Z,3.73
2023-03-28T22:45:02.675Z,3.70
2023-03-28T22:47:30.351Z,3.80
2023-03-28T22:49:58.169Z,4.53
2023-03-28T22:52:31.688Z,4.67
2023-03-28T22:54:58.747Z,4.50
2023-03-28T22:57:26.237Z,5.20
2023-03-28T22:59:56.142Z,5.37
2023-03-28T23:02:23.209Z,5.70
2023-03-28T23:04:51.730Z,5.33
2023-03-28T23:07:18.889Z,5.50
2023-03-28T23:09:45.936Z,5.43
2023-03-28T23:12:13.363Z,5.43
2023-03-28T23:14:40.624Z,4.93
2023-03-28T23:17:07.985Z,4.73
2023-03-28T23:19:35.063Z,5.40
2023-03-28T23:22:02.136Z,4.87
2023-03-28T23:24:29.310Z,5.33
2023-03-28T23:26:56.675Z,5.93
2023-03-28T23:29:23.904Z,5.77
2023-03-28T23:31:51.601Z,5.90
2023-03-28T23:34:18.669Z,6.53
2023-03-28T23:36:46.297Z,5.63
2023-03-28T23:39:14.550Z,5.97
2023-03-28T23:41:41.802Z,6.33
2023-03-28T23:44:08.948Z,6.13
2023-03-28T23:46:36.180Z,5.87
2023-03-28T23:49:03.255Z,6.50
2023-03-28T23:51:31.206Z,6.13
2023-03-28T23:53:58.343Z,5.30
2023-03-28T23:56:25.930Z,5.60
2023-03-28T23:58:53.064Z,5.70
